sensor_id;sensor_type;location;lat;lon;timestamp;P1;durP1;ratioP1;P2;durP2;ratioP2
25657;SDS011;13517;59.320;18.042;2023-11-19T00:01:16;3.35;;;2.70;;
25657;SDS011;13517;59.320;18.042;2023-11-19T00:03:42;4.43;;;3.00;;
25657;SDS011;13517;59.320;18.042;2023-11-19T00:06:07;6.75;;;2.85;;
25657;SDS011;13517;59.320;18.042;2023-11-19T00:08:34;4.30;;;2.67;;
25657;SDS011;13517;59.320;18.042;2023-11-19T00:11:00;3.58;;;2.60;;
25657;SDS011;13517;59.320;18.042;2023-11-19T00:13:26;4.78;;;2.67;;
25657;SDS011;13517;59.320;18.042;2023-11-19T00:15:51;6.35;;;2.58;;
25657;SDS011;13517;59.320;18.042;2023-11-19T00:18:17;2.80;;;2.25;;
25657;SDS011;13517;59.320;18.042;2023-11-19T00:20:43;4.43;;;2.60;;
25657;SDS011;13517;59.320;18.042;2023-11-19T00:23:09;3.17;;;2.28;;
25657;SDS011;13517;59.320;18.042;2023-11-19T00:25:35;4.43;;;2.70;;
25657;SDS011;13517;59.320;18.042;2023-11-19T00:28:00;3.33;;;2.47;;
25657;SDS011;13517;59.320;18.042;2023-11-19T00:30:26;4.45;;;2.60;;
25657;SDS011;13517;59.320;18.042;2023-11-19T00:32:51;5.15;;;2.30;;
25657;SDS011;13517;59.320;18.042;2023-11-19T00:35:16;4.07;;;2.78;;
25657;SDS011;13517;59.320;18.042;2023-11-19T00:37:42;3.45;;;2.55;;
25657;SDS011;13517;59.320;18.042;2023-11-19T00:40:08;4.25;;;2.70;;
25657;SDS011;13517;59.320;18.042;2023-11-19T00:42:35;4.65;;;1.92;;
25657;SDS011;13517;59.320;18.042;2023-11-19T00:45:00;4.20;;;2.50;;
25657;SDS011;13517;59.320;18.042;2023-11-19T00:47:26;3.10;;;2.53;;
25657;SDS011;13517;59.320;18.042;2023-11-19T00:49:52;3.58;;;2.55;;
25657;SDS011;13517;59.320;18.042;2023-11-19T00:52:17;2.97;;;2.40;;
25657;SDS011;13517;59.320;18.042;2023-11-19T00:54:43;3.90;;;2.70;;
25657;SDS011;13517;59.320;18.042;2023-11-19T00:57:09;3.42;;;2.65;;
25657;SDS011;13517;59.320;18.042;2023-11-19T00:59:35;3.75;;;2.40;;
25657;SDS011;13517;59.320;18.042;2023-11-19T01:02:00;4.93;;;2.60;;
25657;SDS011;13517;59.320;18.042;2023-11-19T01:04:32;3.75;;;2.95;;
25657;SDS011;13517;59.320;18.042;2023-11-19T01:06:58;3.65;;;2.60;;
25657;SDS011;13517;59.320;18.042;2023-11-19T01:09:24;3.25;;;2.58;;
25657;SDS011;13517;59.320;18.042;2023-11-19T01:11:49;5.78;;;2.92;;
25657;SDS011;13517;59.320;18.042;2023-11-19T01:14:15;3.90;;;2.65;;
25657;SDS011;13517;59.320;18.042;2023-11-19T01:16:40;2.95;;;2.30;;
25657;SDS011;13517;59.320;18.042;2023-11-19T01:19:05;9.88;;;2.60;;
25657;SDS011;13517;59.320;18.042;2023-11-19T01:21:31;2.67;;;2.30;;
25657;SDS011;13517;59.320;18.042;2023-11-19T01:23:59;4.45;;;2.50;;
25657;SDS011;13517;59.320;18.042;2023-11-19T01:26:25;4.78;;;2.60;;
25657;SDS011;13517;59.320;18.042;2023-11-19T01:28:51;8.32;;;2.50;;
25657;SDS011;13517;59.320;18.042;2023-11-19T01:31:17;3.88;;;2.58;;
25657;SDS011;13517;59.320;18.042;2023-11-19T01:33:43;6.63;;;2.90;;
25657;SDS011;13517;59.320;18.042;2023-11-19T01:36:08;4.53;;;2.85;;
25657;SDS011;13517;59.320;18.042;2023-11-19T01:38:34;3.88;;;2.67;;
25657;SDS011;13517;59.320;18.042;2023-11-19T01:41:01;4.43;;;2.78;;
25657;SDS011;13517;59.320;18.042;2023-11-19T01:43:31;3.70;;;2.90;;
25657;SDS011;13517;59.320;18.042;2023-11-19T01:46:07;5.05;;;3.03;;
25657;SDS011;13517;59.320;18.042;2023-11-19T01:48:34;4.78;;;2.95;;
25657;SDS011;13517;59.320;18.042;2023-11-19T01:51:02;5.70;;;3.38;;
25657;SDS011;13517;59.320;18.042;2023-11-19T01:53:29;5.55;;;3.90;;
25657;SDS011;13517;59.320;18.042;2023-11-19T01:55:55;6.15;;;4.28;;
25657;SDS011;13517;59.320;18.042;2023-11-19T01:58:22;6.25;;;3.90;;
25657;SDS011;13517;59.320;18.042;2023-11-19T02:00:48;8.48;;;3.47;;
25657;SDS011;13517;59.320;18.042;2023-11-19T02:03:14;7.25;;;4.45;;
25657;SDS011;13517;59.320;18.042;2023-11-19T02:05:40;4.28;;;3.65;;
25657;SDS011;13517;59.320;18.042;2023-11-19T02:08:06;8.80;;;4.13;;
25657;SDS011;13517;59.320;18.042;2023-11-19T02:10:32;7.07;;;4.18;;
25657;SDS011;13517;59.320;18.042;2023-11-19T02:12:58;7.05;;;3.95;;
25657;SDS011;13517;59.320;18.042;2023-11-19T02:15:23;6.13;;;3.75;;
25657;SDS011;13517;59.320;18.042;2023-11-19T02:17:49;5.55;;;3.97;;
25657;SDS011;13517;59.320;18.042;2023-11-19T02:20:16;5.13;;;3.17;;
25657;SDS011;13517;59.320;18.042;2023-11-19T02:22:42;5.43;;;3.30;;
25657;SDS011;13517;59.320;18.042;2023-11-19T02:25:15;5.35;;;3.67;;
25657;SDS011;13517;59.320;18.042;2023-11-19T02:30:21;5.70;;;3.65;;
25657;SDS011;13517;59.320;18.042;2023-11-19T02:32:51;3.50;;;3.05;;
25657;SDS011;13517;59.320;18.042;2023-11-19T02:35:18;6.50;;;2.90;;
25657;SDS011;13517;59.320;18.042;2023-11-19T02:37:43;4.20;;;2.42;;
25657;SDS011;13517;59.320;18.042;2023-11-19T02:40:10;2.88;;;2.28;;
25657;SDS011;13517;59.320;18.042;2023-11-19T02:42:35;2.90;;;1.95;;
25657;SDS011;13517;59.320;18.042;2023-11-19T02:45:01;3.78;;;2.33;;
25657;SDS011;13517;59.320;18.042;2023-11-19T02:47:27;3.30;;;2.25;;
25657;SDS011;13517;59.320;18.042;2023-11-19T02:49:55;3.10;;;2.20;;
25657;SDS011;13517;59.320;18.042;2023-11-19T02:52:20;2.95;;;2.30;;
25657;SDS011;13517;59.320;18.042;2023-11-19T02:54:46;3.60;;;2.42;;
25657;SDS011;13517;59.320;18.042;2023-11-19T02:57:11;4.28;;;2.38;;
25657;SDS011;13517;59.320;18.042;2023-11-19T02:59:38;3.72;;;2.53;;
25657;SDS011;13517;59.320;18.042;2023-11-19T03:02:06;3.28;;;2.17;;
25657;SDS011;13517;59.320;18.042;2023-11-19T03:04:35;5.97;;;2.50;;
25657;SDS011;13517;59.320;18.042;2023-11-19T03:07:00;3.35;;;2.20;;
25657;SDS011;13517;59.320;18.042;2023-11-19T03:09:26;4.43;;;2.75;;
25657;SDS011;13517;59.320;18.042;2023-11-19T03:11:53;6.20;;;2.53;;
25657;SDS011;13517;59.320;18.042;2023-11-19T03:14:18;3.45;;;2.50;;
25657;SDS011;13517;59.320;18.042;2023-11-19T03:16:46;3.30;;;2.58;;
25657;SDS011;13517;59.320;18.042;2023-11-19T03:19:12;4.75;;;2.80;;
25657;SDS011;13517;59.320;18.042;2023-11-19T03:21:37;3.63;;;2.60;;
25657;SDS011;13517;59.320;18.042;2023-11-19T03:24:03;5.63;;;3.20;;
25657;SDS011;13517;59.320;18.042;2023-11-19T03:26:28;3.60;;;2.75;;
25657;SDS011;13517;59.320;18.042;2023-11-19T03:28:54;4.03;;;2.90;;
25657;SDS011;13517;59.320;18.042;2023-11-19T03:31:21;3.60;;;2.72;;
25657;SDS011;13517;59.320;18.042;2023-11-19T03:33:47;4.32;;;3.03;;
25657;SDS011;13517;59.320;18.042;2023-11-19T03:36:12;5.03;;;3.30;;
25657;SDS011;13517;59.320;18.042;2023-11-19T03:38:38;3.88;;;3.05;;
25657;SDS011;13517;59.320;18.042;2023-11-19T03:41:10;5.22;;;3.20;;
25657;SDS011;13517;59.320;18.042;2023-11-19T03:43:39;4.75;;;3.08;;
25657;SDS011;13517;59.320;18.042;2023-11-19T03:46:15;5.28;;;3.42;;
25657;SDS011;13517;59.320;18.042;2023-11-19T03:48:46;5.97;;;3.42;;
25657;SDS011;13517;59.320;18.042;2023-11-19T03:51:13;4.78;;;3.30;;
25657;SDS011;13517;59.320;18.042;2023-11-19T03:53:41;5.68;;;3.42;;
25657;SDS011;13517;59.320;18.042;2023-11-19T03:56:08;4.82;;;3.28;;
25657;SDS011;13517;59.320;18.042;2023-11-19T03:58:35;4.78;;;3.30;;
25657;SDS011;13517;59.320;18.042;2023-11-19T04:01:00;5.05;;;3.47;;
25657;SDS011;13517;59.320;18.042;2023-11-19T04:03:26;6.70;;;3.50;;
25657;SDS011;13517;59.320;18.042;2023-11-19T04:05:52;5.03;;;3.25;;
25657;SDS011;13517;59.320;18.042;2023-11-19T04:08:17;5.43;;;3.63;;
25657;SDS011;13517;59.320;18.042;2023-11-19T04:10:42;4.45;;;3.42;;
25657;SDS011;13517;59.320;18.042;2023-11-19T04:13:08;5.65;;;3.40;;
25657;SDS011;13517;59.320;18.042;2023-11-19T04:15:33;4.78;;;3.00;;
25657;SDS011;13517;59.320;18.042;2023-11-19T04:17:58;4.68;;;3.30;;
25657;SDS011;13517;59.320;18.042;2023-11-19T04:20:24;5.47;;;3.47;;
25657;SDS011;13517;59.320;18.042;2023-11-19T04:22:50;6.13;;;3.58;;
25657;SDS011;13517;59.320;18.042;2023-11-19T04:25:16;4.20;;;3.22;;
25657;SDS011;13517;59.320;18.042;2023-11-19T04:27:44;6.00;;;3.63;;
25657;SDS011;13517;59.320;18.042;2023-11-19T04:30:09;6.43;;;3.72;;
25657;SDS011;13517;59.320;18.042;2023-11-19T04:32:36;5.32;;;3.88;;
25657;SDS011;13517;59.320;18.042;2023-11-19T04:35:01;5.95;;;3.40;;
25657;SDS011;13517;59.320;18.042;2023-11-19T04:37:27;6.20;;;3.88;;
25657;SDS011;13517;59.320;18.042;2023-11-19T04:39:52;6.32;;;3.40;;
25657;SDS011;13517;59.320;18.042;2023-11-19T04:42:17;6.70;;;3.42;;
25657;SDS011;13517;59.320;18.042;2023-11-19T04:44:43;7.78;;;3.92;;
25657;SDS011;13517;59.320;18.042;2023-11-19T04:47:08;6.85;;;3.45;;
25657;SDS011;13517;59.320;18.042;2023-11-19T04:49:36;5.25;;;3.70;;
25657;SDS011;13517;59.320;18.042;2023-11-19T04:52:05;6.95;;;3.75;;
25657;SDS011;13517;59.320;18.042;2023-11-19T04:54:30;5.22;;;3.08;;
25657;SDS011;13517;59.320;18.042;2023-11-19T04:56:56;4.35;;;3.08;;
25657;SDS011;13517;59.320;18.042;2023-11-19T04:59:21;5.25;;;3.28;;
25657;SDS011;13517;59.320;18.042;2023-11-19T05:01:47;6.32;;;3.75;;
25657;SDS011;13517;59.320;18.042;2023-11-19T05:04:13;6.05;;;3.47;;
25657;SDS011;13517;59.320;18.042;2023-11-19T05:06:38;5.55;;;3.28;;
25657;SDS011;13517;59.320;18.042;2023-11-19T05:09:04;9.00;;;3.70;;
25657;SDS011;13517;59.320;18.042;2023-11-19T05:11:32;4.55;;;3.75;;
25657;SDS011;13517;59.320;18.042;2023-11-19T05:14:04;5.45;;;3.58;;
25657;SDS011;13517;59.320;18.042;2023-11-19T05:16:30;5.43;;;3.42;;
25657;SDS011;13517;59.320;18.042;2023-11-19T05:18:56;6.05;;;3.53;;
25657;SDS011;13517;59.320;18.042;2023-11-19T05:21:21;6.65;;;4.03;;
25657;SDS011;13517;59.320;18.042;2023-11-19T05:23:46;6.80;;;3.80;;
25657;SDS011;13517;59.320;18.042;2023-11-19T05:26:21;5.95;;;3.33;;
25657;SDS011;13517;59.320;18.042;2023-11-19T05:28:49;4.45;;;3.22;;
25657;SDS011;13517;59.320;18.042;2023-11-19T05:31:15;4.22;;;2.80;;
25657;SDS011;13517;59.320;18.042;2023-11-19T05:33:42;5.72;;;3.53;;
25657;SDS011;13517;59.320;18.042;2023-11-19T05:36:07;8.50;;;3.40;;
25657;SDS011;13517;59.320;18.042;2023-11-19T05:38:36;4.25;;;3.00;;
25657;SDS011;13517;59.320;18.042;2023-11-19T05:41:02;5.78;;;3.22;;
25657;SDS011;13517;59.320;18.042;2023-11-19T05:43:27;6.55;;;3.40;;
25657;SDS011;13517;59.320;18.042;2023-11-19T05:45:53;3.60;;;2.95;;
25657;SDS011;13517;59.320;18.042;2023-11-19T05:48:18;6.13;;;3.60;;
25657;SDS011;13517;59.320;18.042;2023-11-19T05:50:44;5.40;;;3.30;;
25657;SDS011;13517;59.320;18.042;2023-11-19T05:53:09;4.57;;;3.22;;
25657;SDS011;13517;59.320;18.042;2023-11-19T05:55:38;5.78;;;3.13;;
25657;SDS011;13517;59.320;18.042;2023-11-19T05:58:11;5.47;;;3.00;;
25657;SDS011;13517;59.320;18.042;2023-11-19T06:00:40;7.53;;;3.67;;
25657;SDS011;13517;59.320;18.042;2023-11-19T06:03:09;4.85;;;3.53;;
25657;SDS011;13517;59.320;18.042;2023-11-19T06:05:34;4.60;;;3.25;;
25657;SDS011;13517;59.320;18.042;2023-11-19T06:08:00;4.65;;;3.08;;
25657;SDS011;13517;59.320;18.042;2023-11-19T06:10:27;5.40;;;3.70;;
25657;SDS011;13517;59.320;18.042;2023-11-19T06:12:58;5.78;;;3.78;;
25657;SDS011;13517;59.320;18.042;2023-11-19T06:15:25;5.28;;;3.25;;
25657;SDS011;13517;59.320;18.042;2023-11-19T06:17:52;5.63;;;3.47;;
25657;SDS011;13517;59.320;18.042;2023-11-19T06:20:18;10.07;;;3.47;;
25657;SDS011;13517;59.320;18.042;2023-11-19T06:22:44;5.45;;;3.53;;
25657;SDS011;13517;59.320;18.042;2023-11-19T06:25:10;7.00;;;4.22;;
25657;SDS011;13517;59.320;18.042;2023-11-19T06:27:36;8.32;;;3.92;;
25657;SDS011;13517;59.320;18.042;2023-11-19T06:30:01;5.15;;;3.42;;
25657;SDS011;13517;59.320;18.042;2023-11-19T06:32:27;7.38;;;3.65;;
25657;SDS011;13517;59.320;18.042;2023-11-19T06:34:53;8.45;;;3.30;;
25657;SDS011;13517;59.320;18.042;2023-11-19T06:37:19;10.27;;;3.67;;
25657;SDS011;13517;59.320;18.042;2023-11-19T06:39:44;9.70;;;4.18;;
25657;SDS011;13517;59.320;18.042;2023-11-19T06:42:10;8.57;;;3.45;;
25657;SDS011;13517;59.320;18.042;2023-11-19T06:44:36;6.90;;;3.85;;
25657;SDS011;13517;59.320;18.042;2023-11-19T06:47:01;6.07;;;3.30;;
25657;SDS011;13517;59.320;18.042;2023-11-19T06:49:26;5.38;;;3.50;;
25657;SDS011;13517;59.320;18.042;2023-11-19T06:51:52;5.47;;;3.75;;
25657;SDS011;13517;59.320;18.042;2023-11-19T06:54:17;7.10;;;3.83;;
25657;SDS011;13517;59.320;18.042;2023-11-19T06:56:42;7.63;;;3.80;;
25657;SDS011;13517;59.320;18.042;2023-11-19T06:59:08;5.63;;;3.75;;
25657;SDS011;13517;59.320;18.042;2023-11-19T07:01:35;7.82;;;3.97;;
25657;SDS011;13517;59.320;18.042;2023-11-19T07:04:01;6.70;;;3.92;;
25657;SDS011;13517;59.320;18.042;2023-11-19T07:06:33;7.60;;;3.83;;
25657;SDS011;13517;59.320;18.042;2023-11-19T07:08:58;8.20;;;4.25;;
25657;SDS011;13517;59.320;18.042;2023-11-19T07:11:23;6.30;;;4.00;;
25657;SDS011;13517;59.320;18.042;2023-11-19T07:13:49;6.88;;;3.95;;
25657;SDS011;13517;59.320;18.042;2023-11-19T07:16:15;6.40;;;3.55;;
25657;SDS011;13517;59.320;18.042;2023-11-19T07:18:40;5.85;;;3.78;;
25657;SDS011;13517;59.320;18.042;2023-11-19T07:21:08;7.07;;;3.90;;
25657;SDS011;13517;59.320;18.042;2023-11-19T07:23:35;7.47;;;4.13;;
25657;SDS011;13517;59.320;18.042;2023-11-19T07:26:01;6.90;;;4.50;;
25657;SDS011;13517;59.320;18.042;2023-11-19T07:28:29;6.57;;;4.10;;
25657;SDS011;13517;59.320;18.042;2023-11-19T07:30:54;7.72;;;3.83;;
25657;SDS011;13517;59.320;18.042;2023-11-19T07:33:21;6.90;;;3.78;;
25657;SDS011;13517;59.320;18.042;2023-11-19T07:35:46;6.60;;;3.97;;
25657;SDS011;13517;59.320;18.042;2023-11-19T07:38:12;5.47;;;3.67;;
25657;SDS011;13517;59.320;18.042;2023-11-19T07:40:37;11.13;;;4.47;;
25657;SDS011;13517;59.320;18.042;2023-11-19T07:43:03;5.50;;;4.00;;
25657;SDS011;13517;59.320;18.042;2023-11-19T07:45:28;7.10;;;3.75;;
25657;SDS011;13517;59.320;18.042;2023-11-19T07:47:54;6.80;;;4.03;;
25657;SDS011;13517;59.320;18.042;2023-11-19T07:50:19;7.72;;;3.88;;
25657;SDS011;13517;59.320;18.042;2023-11-19T07:52:45;12.90;;;5.38;;
25657;SDS011;13517;59.320;18.042;2023-11-19T07:55:10;13.23;;;4.50;;
25657;SDS011;13517;59.320;18.042;2023-11-19T07:57:36;11.25;;;5.35;;
25657;SDS011;13517;59.320;18.042;2023-11-19T08:00:02;10.95;;;5.03;;
25657;SDS011;13517;59.320;18.042;2023-11-19T08:02:28;8.23;;;4.72;;
25657;SDS011;13517;59.320;18.042;2023-11-19T08:04:53;9.80;;;5.32;;
25657;SDS011;13517;59.320;18.042;2023-11-19T08:07:20;10.95;;;5.40;;
25657;SDS011;13517;59.320;18.042;2023-11-19T08:09:48;8.75;;;5.07;;
25657;SDS011;13517;59.320;18.042;2023-11-19T08:12:13;12.55;;;4.93;;
25657;SDS011;13517;59.320;18.042;2023-11-19T08:14:40;8.80;;;5.57;;
25657;SDS011;13517;59.320;18.042;2023-11-19T08:17:06;8.82;;;4.72;;
25657;SDS011;13517;59.320;18.042;2023-11-19T08:19:31;9.20;;;5.45;;
25657;SDS011;13517;59.320;18.042;2023-11-19T08:21:57;10.43;;;5.63;;
25657;SDS011;13517;59.320;18.042;2023-11-19T08:24:22;17.48;;;6.35;;
25657;SDS011;13517;59.320;18.042;2023-11-19T08:26:48;11.95;;;5.45;;
25657;SDS011;13517;59.320;18.042;2023-11-19T08:29:14;9.93;;;5.75;;
25657;SDS011;13517;59.320;18.042;2023-11-19T08:31:39;7.93;;;5.30;;
25657;SDS011;13517;59.320;18.042;2023-11-19T08:34:04;11.10;;;4.95;;
25657;SDS011;13517;59.320;18.042;2023-11-19T08:36:33;9.95;;;5.47;;
25657;SDS011;13517;59.320;18.042;2023-11-19T08:38:59;16.95;;;5.97;;
25657;SDS011;13517;59.320;18.042;2023-11-19T08:41:24;10.13;;;5.55;;
25657;SDS011;13517;59.320;18.042;2023-11-19T08:43:50;17.63;;;6.05;;
25657;SDS011;13517;59.320;18.042;2023-11-19T08:46:16;10.40;;;5.45;;
25657;SDS011;13517;59.320;18.042;2023-11-19T08:48:42;14.13;;;5.90;;
25657;SDS011;13517;59.320;18.042;2023-11-19T08:51:07;15.50;;;6.50;;
25657;SDS011;13517;59.320;18.042;2023-11-19T08:53:33;9.73;;;5.38;;
25657;SDS011;13517;59.320;18.042;2023-11-19T08:55:59;15.50;;;5.40;;
25657;SDS011;13517;59.320;18.042;2023-11-19T08:58:25;11.50;;;4.47;;
25657;SDS011;13517;59.320;18.042;2023-11-19T09:00:51;14.02;;;5.45;;
25657;SDS011;13517;59.320;18.042;2023-11-19T09:03:16;10.93;;;5.18;;
25657;SDS011;13517;59.320;18.042;2023-11-19T09:05:41;9.85;;;4.70;;
25657;SDS011;13517;59.320;18.042;2023-11-19T09:08:07;13.63;;;5.30;;
25657;SDS011;13517;59.320;18.042;2023-11-19T09:10:32;7.32;;;4.90;;
25657;SDS011;13517;59.320;18.042;2023-11-19T09:12:57;7.80;;;5.53;;
25657;SDS011;13517;59.320;18.042;2023-11-19T09:15:23;15.88;;;5.82;;
25657;SDS011;13517;59.320;18.042;2023-11-19T09:17:49;7.45;;;4.88;;
25657;SDS011;13517;59.320;18.042;2023-11-19T09:20:14;11.68;;;5.13;;
25657;SDS011;13517;59.320;18.042;2023-11-19T09:22:41;8.35;;;4.95;;
25657;SDS011;13517;59.320;18.042;2023-11-19T09:25:06;8.65;;;4.82;;
25657;SDS011;13517;59.320;18.042;2023-11-19T09:27:32;6.97;;;4.47;;
25657;SDS011;13517;59.320;18.042;2023-11-19T09:29:58;10.15;;;4.50;;
25657;SDS011;13517;59.320;18.042;2023-11-19T09:32:23;8.75;;;4.72;;
25657;SDS011;13517;59.320;18.042;2023-11-19T09:34:49;15.00;;;4.68;;
25657;SDS011;13517;59.320;18.042;2023-11-19T09:37:15;9.23;;;4.85;;
25657;SDS011;13517;59.320;18.042;2023-11-19T09:39:40;9.43;;;4.30;;
25657;SDS011;13517;59.320;18.042;2023-11-19T09:42:08;9.45;;;4.18;;
25657;SDS011;13517;59.320;18.042;2023-11-19T09:44:34;11.77;;;4.88;;
25657;SDS011;13517;59.320;18.042;2023-11-19T09:47:02;6.72;;;4.13;;
25657;SDS011;13517;59.320;18.042;2023-11-19T09:49:29;19.40;;;4.88;;
25657;SDS011;13517;59.320;18.042;2023-11-19T09:51:55;9.05;;;4.93;;
25657;SDS011;13517;59.320;18.042;2023-11-19T09:54:20;8.30;;;4.60;;
25657;SDS011;13517;59.320;18.042;2023-11-19T09:56:46;8.90;;;4.32;;
25657;SDS011;13517;59.320;18.042;2023-11-19T09:59:13;9.07;;;4.53;;
25657;SDS011;13517;59.320;18.042;2023-11-19T10:01:38;8.35;;;5.07;;
25657;SDS011;13517;59.320;18.042;2023-11-19T10:04:05;7.60;;;4.05;;
25657;SDS011;13517;59.320;18.042;2023-11-19T10:06:32;9.93;;;4.60;;
25657;SDS011;13517;59.320;18.042;2023-11-19T10:08:57;7.10;;;4.18;;
25657;SDS011;13517;59.320;18.042;2023-11-19T10:11:24;11.32;;;4.55;;
25657;SDS011;13517;59.320;18.042;2023-11-19T10:13:50;10.35;;;4.05;;
25657;SDS011;13517;59.320;18.042;2023-11-19T10:16:18;9.70;;;4.50;;
25657;SDS011;13517;59.320;18.042;2023-11-19T10:18:47;7.10;;;4.13;;
25657;SDS011;13517;59.320;18.042;2023-11-19T10:21:14;10.40;;;4.40;;
25657;SDS011;13517;59.320;18.042;2023-11-19T10:23:51;9.85;;;4.20;;
25657;SDS011;13517;59.320;18.042;2023-11-19T10:26:19;10.68;;;4.55;;
25657;SDS011;13517;59.320;18.042;2023-11-19T10:28:45;9.98;;;4.20;;
25657;SDS011;13517;59.320;18.042;2023-11-19T10:31:15;11.05;;;4.45;;
25657;SDS011;13517;59.320;18.042;2023-11-19T10:33:42;7.18;;;4.57;;
25657;SDS011;13517;59.320;18.042;2023-11-19T10:36:09;6.40;;;4.15;;
25657;SDS011;13517;59.320;18.042;2023-11-19T10:38:37;8.95;;;4.80;;
25657;SDS011;13517;59.320;18.042;2023-11-19T10:41:03;10.70;;;4.45;;
25657;SDS011;13517;59.320;18.042;2023-11-19T10:43:29;7.60;;;5.15;;
25657;SDS011;13517;59.320;18.042;2023-11-19T10:45:54;10.18;;;4.30;;
25657;SDS011;13517;59.320;18.042;2023-11-19T10:48:34;7.68;;;4.13;;
25657;SDS011;13517;59.320;18.042;2023-11-19T10:51:00;7.35;;;4.50;;
25657;SDS011;13517;59.320;18.042;2023-11-19T10:53:29;8.55;;;4.28;;
25657;SDS011;13517;59.320;18.042;2023-11-19T10:55:55;10.00;;;4.68;;
25657;SDS011;13517;59.320;18.042;2023-11-19T10:58:23;13.95;;;4.25;;
25657;SDS011;13517;59.320;18.042;2023-11-19T11:00:57;14.98;;;5.60;;
25657;SDS011;13517;59.320;18.042;2023-11-19T11:05:55;7.43;;;4.55;;
25657;SDS011;13517;59.320;18.042;2023-11-19T11:08:21;8.30;;;4.55;;
25657;SDS011;13517;59.320;18.042;2023-11-19T11:10:56;13.32;;;6.13;;
25657;SDS011;13517;59.320;18.042;2023-11-19T11:13:26;8.45;;;4.53;;
25657;SDS011;13517;59.320;18.042;2023-11-19T11:15:56;9.73;;;4.82;;
25657;SDS011;13517;59.320;18.042;2023-11-19T11:18:25;6.88;;;4.40;;
25657;SDS011;13517;59.320;18.042;2023-11-19T11:21:02;8.35;;;4.40;;
25657;SDS011;13517;59.320;18.042;2023-11-19T11:37:50;8.85;;;4.78;;
25657;SDS011;13517;59.320;18.042;2023-11-19T11:40:23;9.05;;;4.40;;
25657;SDS011;13517;59.320;18.042;2023-11-19T11:42:48;8.93;;;5.00;;
25657;SDS011;13517;59.320;18.042;2023-11-19T11:45:16;9.35;;;4.82;;
25657;SDS011;13517;59.320;18.042;2023-11-19T11:50:11;8.32;;;4.65;;
25657;SDS011;13517;59.320;18.042;2023-11-19T11:55:28;6.50;;;3.87;;
25657;SDS011;13517;59.320;18.042;2023-11-19T11:57:58;8.85;;;4.40;;
25657;SDS011;13517;59.320;18.042;2023-11-19T12:00:27;8.50;;;4.60;;
25657;SDS011;13517;59.320;18.042;2023-11-19T12:02:55;7.55;;;4.15;;
25657;SDS011;13517;59.320;18.042;2023-11-19T12:05:22;10.50;;;3.92;;
25657;SDS011;13517;59.320;18.042;2023-11-19T12:07:59;8.38;;;4.13;;
25657;SDS011;13517;59.320;18.042;2023-11-19T12:10:26;8.70;;;3.95;;
25657;SDS011;13517;59.320;18.042;2023-11-19T12:12:59;5.75;;;3.97;;
25657;SDS011;13517;59.320;18.042;2023-11-19T12:15:26;7.28;;;4.63;;
25657;SDS011;13517;59.320;18.042;2023-11-19T12:17:53;7.05;;;4.03;;
25657;SDS011;13517;59.320;18.042;2023-11-19T12:20:22;6.82;;;4.30;;
25657;SDS011;13517;59.320;18.042;2023-11-19T12:22:48;9.38;;;4.50;;
25657;SDS011;13517;59.320;18.042;2023-11-19T12:25:15;9.95;;;4.03;;
25657;SDS011;13517;59.320;18.042;2023-11-19T12:27:43;5.07;;;3.45;;
25657;SDS011;13517;59.320;18.042;2023-11-19T12:30:10;14.95;;;4.55;;
25657;SDS011;13517;59.320;18.042;2023-11-19T12:32:39;7.80;;;4.55;;
25657;SDS011;13517;59.320;18.042;2023-11-19T12:35:05;8.52;;;4.45;;
25657;SDS011;13517;59.320;18.042;2023-11-19T12:37:49;9.80;;;4.65;;
25657;SDS011;13517;59.320;18.042;2023-11-19T13:06:07;8.70;;;4.72;;
25657;SDS011;13517;59.320;18.042;2023-11-19T13:08:48;11.50;;;4.43;;
25657;SDS011;13517;59.320;18.042;2023-11-19T13:11:34;9.05;;;4.80;;
25657;SDS011;13517;59.320;18.042;2023-11-19T13:14:13;12.65;;;3.92;;
25657;SDS011;13517;59.320;18.042;2023-11-19T13:17:20;5.88;;;4.03;;
25657;SDS011;13517;59.320;18.042;2023-11-19T13:19:56;10.45;;;4.97;;
25657;SDS011;13517;59.320;18.042;2023-11-19T13:22:32;9.68;;;4.75;;
25657;SDS011;13517;59.320;18.042;2023-11-19T13:25:17;10.75;;;4.63;;
25657;SDS011;13517;59.320;18.042;2023-11-19T13:28:02;9.32;;;4.50;;
25657;SDS011;13517;59.320;18.042;2023-11-19T13:30:37;7.93;;;4.60;;
25657;SDS011;13517;59.320;18.042;2023-11-19T13:33:18;10.25;;;4.63;;
25657;SDS011;13517;59.320;18.042;2023-11-19T13:36:01;10.77;;;4.85;;
25657;SDS011;13517;59.320;18.042;2023-11-19T13:52:32;10.82;;;5.13;;
25657;SDS011;13517;59.320;18.042;2023-11-19T14:05:41;17.27;;;6.32;;
25657;SDS011;13517;59.320;18.042;2023-11-19T14:08:45;11.45;;;5.40;;
25657;SDS011;13517;59.320;18.042;2023-11-19T14:11:34;12.85;;;6.22;;
25657;SDS011;13517;59.320;18.042;2023-11-19T14:14:00;14.48;;;6.13;;
25657;SDS011;13517;59.320;18.042;2023-11-19T14:16:28;14.82;;;6.78;;
25657;SDS011;13517;59.320;18.042;2023-11-19T14:18:54;16.10;;;8.43;;
25657;SDS011;13517;59.320;18.042;2023-11-19T14:21:19;11.15;;;6.47;;
25657;SDS011;13517;59.320;18.042;2023-11-19T14:23:45;9.07;;;4.97;;
25657;SDS011;13517;59.320;18.042;2023-11-19T14:26:10;13.32;;;7.80;;
25657;SDS011;13517;59.320;18.042;2023-11-19T14:28:37;13.88;;;7.32;;
25657;SDS011;13517;59.320;18.042;2023-11-19T14:31:03;17.73;;;6.78;;
25657;SDS011;13517;59.320;18.042;2023-11-19T14:33:29;11.25;;;5.38;;
25657;SDS011;13517;59.320;18.042;2023-11-19T14:35:54;8.60;;;5.05;;
25657;SDS011;13517;59.320;18.042;2023-11-19T14:38:19;8.45;;;4.85;;
25657;SDS011;13517;59.320;18.042;2023-11-19T14:40:45;10.45;;;5.40;;
25657;SDS011;13517;59.320;18.042;2023-11-19T14:43:10;7.68;;;4.72;;
25657;SDS011;13517;59.320;18.042;2023-11-19T14:45:36;9.50;;;5.35;;
25657;SDS011;13517;59.320;18.042;2023-11-19T14:48:01;8.43;;;4.00;;
25657;SDS011;13517;59.320;18.042;2023-11-19T14:50:27;8.93;;;4.55;;
25657;SDS011;13517;59.320;18.042;2023-11-19T14:52:53;8.43;;;4.40;;
25657;SDS011;13517;59.320;18.042;2023-11-19T14:55:18;7.88;;;4.85;;
25657;SDS011;13517;59.320;18.042;2023-11-19T14:57:44;11.38;;;4.45;;
25657;SDS011;13517;59.320;18.042;2023-11-19T15:00:10;10.02;;;4.53;;
25657;SDS011;13517;59.320;18.042;2023-11-19T15:02:41;10.65;;;5.03;;
25657;SDS011;13517;59.320;18.042;2023-11-19T15:05:10;9.73;;;4.30;;
25657;SDS011;13517;59.320;18.042;2023-11-19T15:07:36;7.80;;;4.60;;
25657;SDS011;13517;59.320;18.042;2023-11-19T15:10:02;9.85;;;4.93;;
25657;SDS011;13517;59.320;18.042;2023-11-19T15:12:28;10.63;;;4.53;;
25657;SDS011;13517;59.320;18.042;2023-11-19T15:14:54;8.50;;;4.75;;
25657;SDS011;13517;59.320;18.042;2023-11-19T15:17:20;9.68;;;4.78;;
25657;SDS011;13517;59.320;18.042;2023-11-19T15:19:46;6.82;;;4.47;;
25657;SDS011;13517;59.320;18.042;2023-11-19T15:22:12;15.27;;;4.47;;
25657;SDS011;13517;59.320;18.042;2023-11-19T15:24:38;9.50;;;4.45;;
25657;SDS011;13517;59.320;18.042;2023-11-19T15:27:04;8.38;;;4.57;;
25657;SDS011;13517;59.320;18.042;2023-11-19T15:29:30;7.93;;;4.20;;
25657;SDS011;13517;59.320;18.042;2023-11-19T15:31:58;6.95;;;4.80;;
25657;SDS011;13517;59.320;18.042;2023-11-19T15:34:23;11.38;;;4.90;;
25657;SDS011;13517;59.320;18.042;2023-11-19T15:36:50;5.60;;;3.83;;
25657;SDS011;13517;59.320;18.042;2023-11-19T15:39:15;12.15;;;4.35;;
25657;SDS011;13517;59.320;18.042;2023-11-19T15:41:41;8.68;;;4.43;;
25657;SDS011;13517;59.320;18.042;2023-11-19T15:44:06;9.30;;;4.82;;
25657;SDS011;13517;59.320;18.042;2023-11-19T15:46:32;9.45;;;5.05;;